createdAt,value
2023-04-16T08:01:13.636Z,0.50
2023-04-16T08:02:13.721Z,0.50
2023-04-16T08:03:13.893Z,0.50
2023-04-16T08:04:13.781Z,0.50
2023-04-16T08:05:13.760Z,0.50
2023-04-16T08:06:13.783Z,0.50
2023-04-16T08:07:13.804Z,0.34
2023-04-16T08:08:13.819Z,0.34
2023-04-16T08:09:13.862Z,0.34
2023-04-16T08:10:13.908Z,0.34
2023-04-16T08:11:13.955Z,0.34
2023-04-16T08:12:14.012Z,0.34
2023-04-16T08:13:14.082Z,0.34
2023-04-16T08:14:14.127Z,0.34
2023-04-16T08:15:14.164Z,0.34
2023-04-16T08:16:14.223Z,0.34
2023-04-16T08:17:14.227Z,0.34
2023-04-16T08:18:14.271Z,0.34
2023-04-16T08:19:14.277Z,0.34
2023-04-16T08:20:17.030Z,0.34
2023-04-16T08:21:14.398Z,0.34
2023-04-16T08:22:14.295Z,0.34
2023-04-16T08:23:14.311Z,0.34
2023-04-16T08:24:14.311Z,0.34
2023-04-16T08:25:14.304Z,0.34
2023-04-16T08:26:14.288Z,0.34
2023-04-16T08:27:18.652Z,0.34
2023-04-16T08:28:15.251Z,0.34
2023-04-16T08:29:14.261Z,0.34
2023-04-16T08:30:14.267Z,0.34
2023-04-16T08:31:14.283Z,0.34
2023-04-16T08:32:14.245Z,0.34
2023-04-16T08:33:14.318Z,0.34
2023-04-16T08:34:14.231Z,0.34
2023-04-16T08:35:14.225Z,0.34
2023-04-16T08:36:14.210Z,0.39
2023-04-16T08:37:14.183Z,0.47
2023-04-16T08:38:14.193Z,0.50
2023-04-16T08:39:14.207Z,0.50
2023-04-16T08:40:14.189Z,0.50
2023-04-16T08:41:14.184Z,0.50
2023-04-16T08:42:14.190Z,0.50
2023-04-16T08:43:14.152Z,0.50
2023-04-16T08:44:14.136Z,0.50
2023-04-16T08:45:14.157Z,0.50
2023-04-16T08:46:14.155Z,0.51
2023-04-16T08:47:14.123Z,0.51
2023-04-16T08:48:14.116Z,0.50
2023-04-16T08:49:14.140Z,0.50
2023-04-16T08:50:14.102Z,0.50
2023-04-16T08:51:14.133Z,0.51
2023-04-16T08:52:14.302Z,0.50
2023-04-16T08:53:20.283Z,0.50
2023-04-16T08:54:14.055Z,0.50
2023-04-16T08:55:14.073Z,0.50
2023-04-16T08:56:15.887Z,0.50
2023-04-16T08:57:14.063Z,0.50
2023-04-16T08:58:14.042Z,0.50
2023-04-16T08:59:14.083Z,0.49
2023-04-16T09:00:14.086Z,0.48
2023-04-16T09:01:14.075Z,0.49
2023-04-16T09:02:14.122Z,0.51
2023-04-16T09:03:14.164Z,0.51
2023-04-16T09:04:14.324Z,0.51
2023-04-16T09:05:14.165Z,0.50
2023-04-16T09:06:14.137Z,0.50
2023-04-16T09:07:14.190Z,0.50
2023-04-16T09:08:14.204Z,0.51
2023-04-16T09:09:14.211Z,0.51
2023-04-16T09:10:14.235Z,0.51
2023-04-16T09:11:14.219Z,0.52
2023-04-16T09:12:14.253Z,0.51
2023-04-16T09:13:14.267Z,0.51
2023-04-16T09:14:14.290Z,0.51
2023-04-16T09:15:14.294Z,0.52
2023-04-16T09:16:14.354Z,0.51
2023-04-16T09:17:14.304Z,0.50
2023-04-16T09:18:14.330Z,0.51
2023-04-16T09:19:14.344Z,0.52
2023-04-16T09:20:14.353Z,0.51
2023-04-16T09:21:14.365Z,0.51
2023-04-16T09:22:14.371Z,0.51
2023-04-16T09:23:14.395Z,0.51
2023-04-16T09:24:14.404Z,0.51
2023-04-16T09:25:14.407Z,0.51
2023-04-16T09:26:14.436Z,0.52
2023-04-16T09:27:14.425Z,0.50
2023-04-16T09:28:14.419Z,0.51
2023-04-16T09:29:14.442Z,0.51
2023-04-16T09:30:14.457Z,0.51
2023-04-16T09:31:14.470Z,0.51
2023-04-16T09:32:14.513Z,0.51
2023-04-16T09:33:14.453Z,0.51
2023-04-16T09:34:14.470Z,0.52
2023-04-16T09:35:14.495Z,0.51
2023-04-16T09:36:14.465Z,0.51
2023-04-16T09:37:14.512Z,0.52
2023-04-16T09:38:14.485Z,0.52
2023-04-16T09:39:14.525Z,0.51
2023-04-16T09:40:14.512Z,0.51
2023-04-16T09:41:14.525Z,0.50
2023-04-16T09:42:14.541Z,0.51
2023-04-16T09:43:14.515Z,0.51
2023-04-16T09:44:14.563Z,0.51
2023-04-16T09:45:14.560Z,0.51
2023-04-16T09:46:14.592Z,0.50
2023-04-16T09:47:14.602Z,0.52
2023-04-16T09:48:14.557Z,0.51
2023-04-16T09:49:14.556Z,0.52
2023-04-16T09:50:16.450Z,0.52
2023-04-16T09:51:14.564Z,0.51
2023-04-16T09:52:14.530Z,0.51
2023-04-16T09:53:14.546Z,0.51
2023-04-16T09:54:14.543Z,0.51
2023-04-16T09:55:14.542Z,0.51
2023-04-16T09:56:14.521Z,0.51
2023-04-16T09:57:14.486Z,0.51
2023-04-16T09:58:14.482Z,0.51
2023-04-16T09:59:14.479Z,0.51
2023-04-16T10:00:14.491Z,0.51
2023-04-16T10:01:14.510Z,0.51
2023-04-16T10:02:16.413Z,0.51
2023-04-16T10:03:14.598Z,0.51
2023-04-16T10:04:14.501Z,0.50
2023-04-16T10:05:14.437Z,0.50
2023-04-16T10:06:14.426Z,0.51
2023-04-16T10:07:14.451Z,0.51
2023-04-16T10:08:14.434Z,0.50
2023-04-16T10:09:14.438Z,0.50
2023-04-16T10:10:14.454Z,0.51
2023-04-16T10:11:14.383Z,0.51
2023-04-16T10:12:14.391Z,0.51
2023-04-16T10:13:14.378Z,0.52
2023-04-16T10:14:14.391Z,0.51
2023-04-16T10:15:14.380Z,0.51
2023-04-16T10:16:14.422Z,0.52
2023-04-16T10:17:14.368Z,0.52
2023-04-16T10:18:14.344Z,0.52
2023-04-16T10:19:14.361Z,0.51
2023-04-16T10:20:15.503Z,0.51
2023-04-16T10:21:14.307Z,0.52
2023-04-16T10:22:14.320Z,0.51
2023-04-16T10:23:14.305Z,0.51
2023-04-16T10:24:14.344Z,0.51
2023-04-16T10:25:14.341Z,0.51
2023-04-16T10:26:14.297Z,0.51
2023-04-16T10:27:14.276Z,0.52
2023-04-16T10:28:14.261Z,0.51
2023-04-16T10:29:14.253Z,0.51
2023-04-16T10:30:14.260Z,0.52
2023-04-16T10:31:14.331Z,0.52
2023-04-16T10:32:14.231Z,0.52
2023-04-16T10:33:14.262Z,0.51
2023-04-16T10:34:14.235Z,0.50
2023-04-16T10:35:14.256Z,0.51
2023-04-16T10:36:14.195Z,0.51
2023-04-16T10:37:14.245Z,0.52
2023-04-16T10:38:14.192Z,0.51
2023-04-16T10:39:16.878Z,0.51
2023-04-16T10:40:14.211Z,0.51
2023-04-16T10:41:14.192Z,0.51
2023-04-16T10:42:14.144Z,0.52
2023-04-16T10:43:14.191Z,0.51
2023-04-16T10:44:14.168Z,0.52
2023-04-16T10:45:14.134Z,0.52
2023-04-16T10:46:14.196Z,0.51
2023-04-16T10:47:14.310Z,0.51
2023-04-16T10:48:14.156Z,0.51
2023-04-16T10:49:14.132Z,0.51
2023-04-16T10:50:14.126Z,0.51
2023-04-16T10:51:14.094Z,0.50
2023-04-16T10:52:14.085Z,0.51
2023-04-16T10:53:14.108Z,0.52
2023-04-16T10:54:14.084Z,0.51
2023-04-16T10:55:14.076Z,0.51
2023-04-16T10:56:14.089Z,0.51
2023-04-16T10:57:14.073Z,0.52
2023-04-16T10:58:14.069Z,0.51
2023-04-16T10:59:14.068Z,0.51
2023-04-16T11:00:14.057Z,0.51
2023-04-16T11:01:14.130Z,0.51
2023-04-16T11:02:14.110Z,0.51
2023-04-16T11:03:14.084Z,0.51
2023-04-16T11:04:14.133Z,0.51
2023-04-16T11:05:14.026Z,0.51
2023-04-16T11:06:13.970Z,0.51
2023-04-16T11:07:13.968Z,0.50
2023-04-16T11:08:13.967Z,0.50
2023-04-16T11:09:13.969Z,0.52
2023-04-16T11:10:13.964Z,0.51
2023-04-16T11:11:13.945Z,0.51
2023-04-16T11:12:13.949Z,0.51
2023-04-16T11:13:13.953Z,0.51
2023-04-16T11:14:13.919Z,0.51
2023-04-16T11:15:13.911Z,0.50
2023-04-16T11:16:13.934Z,0.51
2023-04-16T11:17:13.887Z,0.51
2023-04-16T11:18:13.918Z,0.51
2023-04-16T11:19:13.904Z,0.52
2023-04-16T11:20:19.640Z,0.51
2023-04-16T11:21:14.915Z,0.51
2023-04-16T11:22:13.910Z,0.51
2023-04-16T11:23:13.885Z,0.51
2023-04-16T11:24:13.868Z,0.51
2023-04-16T11:25:13.840Z,0.51
2023-04-16T11:26:13.851Z,0.51
2023-04-16T11:27:13.915Z,0.51
2023-04-16T11:28:13.856Z,0.51
2023-04-16T11:29:13.875Z,0.51
2023-04-16T11:30:13.817Z,0.51
2023-04-16T11:31:13.849Z,0.51
2023-04-16T11:32:13.813Z,0.50
2023-04-16T11:33:13.793Z,0.51
2023-04-16T11:34:13.821Z,0.51
2023-04-16T11:35:13.787Z,0.51
2023-04-16T11:36:13.792Z,0.51
2023-04-16T11:37:13.771Z,0.52
2023-04-16T11:38:13.789Z,0.52
2023-04-16T11:39:13.761Z,0.50
2023-04-16T11:40:13.741Z,0.51
2023-04-16T11:41:13.721Z,0.51
2023-04-16T11:42:13.790Z,0.51
2023-04-16T11:43:13.764Z,0.51
2023-04-16T11:44:13.752Z,0.51
2023-04-16T11:45:13.772Z,0.51
2023-04-16T11:46:26.783Z,0.52
2023-04-16T11:47:14.805Z,0.52
2023-04-16T11:48:13.817Z,0.52
2023-04-16T11:49:13.975Z,0.51
2023-04-16T11:50:13.718Z,0.51
2023-04-16T11:51:13.771Z,0.52
2023-04-16T11:52:13.741Z,0.52
2023-04-16T11:53:13.745Z,0.52
2023-04-16T11:54:13.698Z,0.51
2023-04-16T11:55:13.737Z,0.52
2023-04-16T11:56:13.683Z,0.51
2023-04-16T11:57:13.674Z,0.50
2023-04-16T11:58:13.684Z,0.51
2023-04-16T11:59:14.216Z,0.52
2023-04-16T12:00:13.773Z,0.51
2023-04-16T12:01:13.682Z,0.50
2023-04-16T12:02:13.735Z,0.52
2023-04-16T12:03:13.897Z,0.51
2023-04-16T12:04:14.011Z,0.51
2023-04-16T12:05:13.710Z,0.51
2023-04-16T12:06:13.668Z,0.50
2023-04-16T12:07:13.678Z,0.52
2023-04-16T12:08:13.700Z,0.52
2023-04-16T12:09:13.735Z,0.51
2023-04-16T12:10:13.712Z,0.51
2023-04-16T12:11:13.748Z,0.52
2023-04-16T12:12:13.784Z,0.51
2023-04-16T12:13:13.828Z,0.51
2023-04-16T12:14:13.803Z,0.51
2023-04-16T12:15:13.856Z,0.50
2023-04-16T12:16:13.922Z,0.52
2023-04-16T12:17:13.982Z,0.51
2023-04-16T12:18:13.938Z,0.51
2023-04-16T12:19:14.002Z,0.52
2023-04-16T12:20:13.990Z,0.51
2023-04-16T12:21:14.103Z,0.51
2023-04-16T12:22:14.035Z,0.51
2023-04-16T12:23:14.063Z,0.51
2023-04-16T12:24:14.095Z,0.50
2023-04-16T12:25:14.059Z,0.52
2023-04-16T12:26:14.120Z,0.51
2023-04-16T12:27:14.129Z,0.50
2023-04-16T12:28:14.136Z,0.51
2023-04-16T12:29:14.143Z,0.51
2023-04-16T12:30:14.208Z,0.51
2023-04-16T12:31:14.308Z,0.51
2023-04-16T12:32:14.247Z,0.51
2023-04-16T12:33:14.239Z,0.51
2023-04-16T12:34:14.259Z,0.51
2023-04-16T12:35:14.284Z,0.53
2023-04-16T12:36:14.304Z,0.51
2023-04-16T12:37:14.329Z,0.52
2023-04-16T12:38:14.334Z,0.51
2023-04-16T12:39:14.344Z,0.52
2023-04-16T12:40:14.371Z,0.52
2023-04-16T12:41:14.449Z,0.51
2023-04-16T12:42:14.385Z,0.51
2023-04-16T12:43:14.355Z,0.52
2023-04-16T12:44:14.454Z,0.51
2023-04-16T12:45:14.425Z,0.51
2023-04-16T12:46:14.500Z,0.50
2023-04-16T12:47:14.443Z,0.52
2023-04-16T12:48:14.503Z,0.51
2023-04-16T12:49:14.515Z,0.52
2023-04-16T12:50:14.518Z,0.50
2023-04-16T12:51:14.520Z,0.52
2023-04-16T12:52:14.530Z,0.51
2023-04-16T12:53:14.554Z,0.51
2023-04-16T12:54:14.580Z,0.51
2023-04-16T12:55:14.653Z,0.51
2023-04-16T12:56:14.727Z,0.50
2023-04-16T12:57:14.666Z,0.51
2023-04-16T12:58:14.683Z,0.51
2023-04-16T12:59:14.700Z,0.51
2023-04-16T13:00:14.794Z,0.51
